Time;durP1;ratioP1;P1;durP2;ratioP2;P2;SDS_P1;SDS_P2;PMS_P1;PMS_P2;Temp;Humidity;BMP_temperature;BMP_pressure;BME280_temperature;BME280_humidity;BME280_pressure;Samples;Min_cycle;Max_cycle;Signal;HPM_P1;HPM_P2
2023/10/09 00:03:00;;;;;;;11.02;3.92;;;;;;;17.80;44.62;96248.19;5026988;28;20247;-80
2023/10/09 00:05:38;;;;;;;17.88;4.60;;;;;;;17.82;44.38;96239.13;5025741;28;20201;-79
2023/10/09 00:08:04;;;;;;;10.60;3.90;;;;;;;17.88;44.58;96247.31;5025962;28;20174;-79
2023/10/09 00:10:37;;;;;;;18.65;4.68;;;;;;;17.91;44.22;96246.97;5018446;28;20221;-80
2023/10/09 00:13:02;;;;;;;11.93;4.03;;;;;;;17.87;44.58;96249.13;5018281;28;20683;-81
2023/10/09 00:15:28;;;;;;;14.18;4.50;;;;;;;17.85;44.35;96240.63;5028811;28;20207;-81
2023/10/09 00:17:58;;;;;;;14.43;3.92;;;;;;;17.79;44.39;96242.13;5030646;28;20680;-81
2023/10/09 00:20:37;;;;;;;15.25;4.78;;;;;;;17.68;44.95;96250.38;5024141;28;20190;-81
2023/10/09 00:23:04;;;;;;;16.77;5.20;;;;;;;17.65;44.94;96234.97;5034568;28;20191;-79
2023/10/09 00:25:30;;;;;;;15.63;4.63;;;;;;;17.68;44.60;96239.88;5029068;28;20260;-80
2023/10/09 00:27:55;;;;;;;11.57;4.18;;;;;;;17.65;44.64;96242.03;5026706;28;20183;-80
2023/10/09 00:30:29;;;;;;;12.95;4.07;;;;;;;17.53;45.43;96237.19;5028967;28;20186;-81
2023/10/09 00:33:01;;;;;;;12.07;4.22;;;;;;;17.45;45.81;96233.78;5024119;28;20563;-81
2023/10/09 00:35:36;;;;;;;19.00;4.50;;;;;;;17.30;46.51;96235.50;5047247;28;20211;-81
2023/10/09 00:38:13;;;;;;;13.38;4.43;;;;;;;17.07;48.50;96233.66;5035686;28;20372;-80
2023/10/09 00:40:45;;;;;;;15.65;4.85;;;;;;;16.95;48.26;96232.38;5033397;28;20199;-79
2023/10/09 00:43:13;;;;;;;15.63;4.65;;;;;;;16.81;48.88;96233.94;5031959;28;20194;-80
2023/10/09 00:45:40;;;;;;;18.77;6.00;;;;;;;16.70;49.29;96229.88;5021654;28;20278;-80
2023/10/09 00:48:08;;;;;;;14.02;4.28;;;;;;;16.64;49.65;96230.50;5015458;28;20193;-80
2023/10/09 00:50:35;;;;;;;15.32;4.07;;;;;;;16.66;48.99;96227.72;5026337;28;20194;-80
2023/10/09 00:53:02;;;;;;;18.05;4.55;;;;;;;16.73;48.21;96222.66;5026098;28;20560;-79
2023/10/09 00:55:38;;;;;;;19.27;4.70;;;;;;;16.88;47.43;96215.72;5027621;28;20203;-80
2023/10/09 00:58:09;;;;;;;17.25;4.60;;;;;;;16.93;47.23;96216.81;5019661;28;20210;-81
2023/10/09 01:03:18;;;;;;;12.70;4.47;;;;;;;17.10;46.27;96214.13;5026271;28;20190;-81
2023/10/09 01:05:59;;;;;;;15.27;4.43;;;;;;;17.22;45.82;96210.94;5025502;28;20210;-80
2023/10/09 01:10:56;;;;;;;18.15;5.07;;;;;;;17.37;45.28;96199.69;5025799;28;20189;-81
2023/10/09 01:13:28;;;;;;;21.65;4.55;;;;;;;17.48;45.12;96201.91;5008371;28;20204;-80
2023/10/09 01:15:57;;;;;;;15.52;4.60;;;;;;;17.56;44.74;96199.25;5015025;28;20202;-79
2023/10/09 01:18:31;;;;;;;17.33;4.43;;;;;;;17.65;44.47;96192.94;5030886;28;20210;-82
2023/10/09 01:20:57;;;;;;;18.17;4.50;;;;;;;17.74;44.42;96181.41;5008430;28;20191;-82
2023/10/09 01:23:23;;;;;;;14.85;4.07;;;;;;;17.80;43.99;96187.78;5016791;28;20206;-81
2023/10/09 01:25:49;;;;;;;14.00;4.20;;;;;;;17.82;43.70;96183.16;5030976;28;20206;-81
2023/10/09 01:28:15;;;;;;;14.90;4.38;;;;;;;17.91;43.34;96183.91;5019458;28;20182;-81
2023/10/09 01:30:42;;;;;;;15.18;4.53;;;;;;;17.99;43.24;96186.47;5026400;28;20183;-80
2023/10/09 01:33:24;;;;;;;23.33;4.47;;;;;;;18.04;43.03;96179.69;5015726;28;20191;-80
2023/10/09 01:35:56;;;;;;;14.05;4.50;;;;;;;18.04;42.70;96178.88;5019642;28;20841;-80
2023/10/09 01:38:31;;;;;;;15.77;4.63;;;;;;;18.17;42.38;96179.06;5018399;28;20692;-80
2023/10/09 01:41:03;;;;;;;16.25;4.10;;;;;;;18.23;42.33;96180.97;5024918;28;20209;-80
2023/10/09 01:43:28;;;;;;;17.10;5.38;;;;;;;18.20;42.49;96181.34;5032502;28;20183;-80
2023/10/09 01:45:54;;;;;;;19.17;3.85;;;;;;;18.19;42.68;96181.50;5022480;28;20264;-81
2023/10/09 01:48:24;;;;;;;19.73;4.70;;;;;;;18.14;42.26;96176.81;5016117;28;20188;-80
2023/10/09 01:50:49;;;;;;;13.50;4.95;;;;;;;18.09;42.52;96184.38;5034684;28;20260;-80
2023/10/09 01:53:18;;;;;;;16.45;4.20;;;;;;;17.98;42.69;96172.50;5028810;28;20194;-80
2023/10/09 01:55:45;;;;;;;18.45;4.95;;;;;;;17.93;43.27;96166.94;5017829;28;20219;-81
2023/10/09 02:00:53;;;;;;;17.48;4.70;;;;;;;17.74;43.91;96165.66;5027374;28;20688;-79
2023/10/09 02:03:22;;;;;;;17.67;4.60;;;;;;;17.67;44.08;96167.34;5016908;28;20190;-79
2023/10/09 02:05:47;;;;;;;13.98;4.22;;;;;;;17.61;44.26;96165.41;5024028;28;20707;-81
2023/10/09 02:08:13;;;;;;;17.45;4.57;;;;;;;17.63;44.03;96162.59;5032634;28;20212;-79
2023/10/09 02:10:47;;;;;;;15.57;3.88;;;;;;;17.65;43.92;96157.97;5023394;28;20233;-80
2023/10/09 02:13:16;;;;;;;17.88;4.50;;;;;;;17.62;44.25;96164.41;5019394;28;20190;-80
2023/10/09 02:18:56;;;;;;;21.80;4.90;;;;;;;17.64;43.77;96149.28;5025824;28;20720;-80
2023/10/09 02:21:12;;;;;;;18.92;4.75;;;;;;;17.68;44.15;96160.28;5014960;28;20187;-81
2023/10/09 02:26:17;;;;;;;21.40;5.75;;;;;;;17.77;43.51;96143.47;5026362;28;20210;-81
2023/10/09 02:28:52;;;;;;;19.40;4.60;;;;;;;17.93;42.77;96148.56;5010967;28;20187;-80
2023/10/09 02:31:22;;;;;;;25.95;5.32;;;;;;;18.05;42.87;96157.66;5020152;28;20547;-81
2023/10/09 02:33:50;;;;;;;21.33;5.22;;;;;;;18.09;43.00;96147.59;5017362;28;20289;-79
2023/10/09 02:36:15;;;;;;;19.98;5.15;;;;;;;18.17;42.58;96144.06;5013516;28;20226;-81
2023/10/09 02:38:42;;;;;;;19.65;4.57;;;;;;;18.17;42.58;96147.53;5033209;28;20218;-81
2023/10/09 02:41:28;;;;;;;15.00;4.55;;;;;;;18.30;42.12;96150.34;5026108;28;20234;-80
2023/10/09 02:43:55;;;;;;;19.77;4.55;;;;;;;18.43;41.90;96139.19;5030707;28;20297;-79
2023/10/09 02:46:21;;;;;;;23.48;5.65;;;;;;;18.49;41.81;96138.47;5020143;28;20233;-79
2023/10/09 02:48:53;;;;;;;19.85;4.13;;;;;;;18.50;41.68;96134.84;5023548;28;20262;-80
2023/10/09 02:53:51;;;;;;;17.80;5.38;;;;;;;18.63;42.08;96136.81;5033444;28;20198;-80
2023/10/09 02:56:23;;;;;;;16.50;4.63;;;;;;;18.63;41.72;96131.53;5020562;28;20231;-81
2023/10/09 02:58:49;;;;;;;16.20;4.70;;;;;;;18.73;41.28;96139.19;5018909;28;20219;-81
2023/10/09 03:01:15;;;;;;;20.70;5.53;;;;;;;18.72;41.75;96132.28;5010481;28;20186;-80
2023/10/09 03:03:46;;;;;;;20.25;5.22;;;;;;;18.73;41.58;96134.75;5024302;28;20295;-80
2023/10/09 03:06:12;;;;;;;24.90;5.18;;;;;;;18.71;41.55;96138.56;5021079;28;20211;-81
2023/10/09 03:08:40;;;;;;;23.00;5.75;;;;;;;18.78;41.14;96132.38;5032550;28;20189;-81
2023/10/09 03:11:06;;;;;;;23.23;5.93;;;;;;;18.78;40.98;96129.75;5019914;28;20314;-81
2023/10/09 03:13:33;;;;;;;20.30;5.55;;;;;;;18.83;41.18;96123.94;5020225;28;20191;-81
2023/10/09 03:15:58;;;;;;;22.40;4.45;;;;;;;18.92;40.97;96136.00;5018831;28;20257;-80
2023/10/09 03:18:24;;;;;;;24.65;5.90;;;;;;;18.94;40.65;96121.66;5030524;28;20199;-81
2023/10/09 03:20:50;;;;;;;27.45;5.85;;;;;;;19.01;40.81;96123.53;5013948;28;20205;-79
2023/10/09 03:23:15;;;;;;;18.70;4.90;;;;;;;19.06;40.42;96113.25;5012648;28;20198;-79
2023/10/09 03:25:45;;;;;;;23.35;5.43;;;;;;;19.04;40.11;96116.06;5014394;28;20198;-80
2023/10/09 03:28:11;;;;;;;23.20;4.95;;;;;;;19.07;40.18;96115.69;5023935;28;20735;-80
2023/10/09 03:30:40;;;;;;;20.70;5.82;;;;;;;19.15;40.26;96117.41;5012893;28;20194;-80
2023/10/09 03:33:06;;;;;;;21.92;4.82;;;;;;;19.14;40.10;96110.50;5008857;28;20221;-81
2023/10/09 03:35:34;;;;;;;18.08;4.95;;;;;;;19.18;40.08;96104.69;5021118;28;20202;-81
2023/10/09 03:38:12;;;;;;;23.40;5.82;;;;;;;19.36;39.61;96109.53;5019981;28;20207;-80
2023/10/09 03:40:43;;;;;;;19.95;5.38;;;;;;;19.30;39.65;96104.19;5023175;28;20221;-81
2023/10/09 03:43:10;;;;;;;18.50;5.03;;;;;;;19.32;39.43;96105.63;5020088;28;20188;-80
2023/10/09 03:45:38;;;;;;;20.63;4.82;;;;;;;19.35;39.86;96101.81;5020010;28;20207;-80
2023/10/09 03:48:21;;;;;;;20.30;5.70;;;;;;;19.39;39.89;96109.13;5020812;28;20186;-80
2023/10/09 03:50:47;;;;;;;18.92;5.18;;;;;;;19.32;40.10;96103.00;5016764;28;20217;-80
2023/10/09 03:53:13;;;;;;;20.60;5.05;;;;;;;19.37;39.25;96110.34;5023752;28;20504;-80
2023/10/09 03:55:39;;;;;;;22.65;5.18;;;;;;;19.37;39.70;96115.59;5013260;28;20241;-81
2023/10/09 03:58:11;;;;;;;22.50;5.47;;;;;;;19.38;40.17;96110.16;5013273;28;20206;-80
2023/10/09 04:00:46;;;;;;;23.08;4.53;;;;;;;19.40;39.93;96115.22;5023645;28;20194;-81
2023/10/09 04:03:14;;;;;;;20.27;5.72;;;;;;;19.30;40.35;96106.81;5012722;28;20204;-79
2023/10/09 04:05:43;;;;;;;16.45;4.88;;;;;;;19.31;40.26;96118.97;5021155;28;20211;-79
2023/10/09 04:08:21;;;;;;;21.17;5.13;;;;;;;19.32;40.01;96107.44;5014102;28;20183;-79
2023/10/09 04:10:52;;;;;;;21.70;5.20;;;;;;;19.32;40.31;96105.63;5013960;28;20191;-80
2023/10/09 04:13:22;;;;;;;16.13;4.97;;;;;;;19.33;40.10;96107.25;5017185;28;20190;-80
2023/10/09 04:15:49;;;;;;;17.80;4.53;;;;;;;19.23;40.45;96110.19;5012879;28;20202;-79
2023/10/09 04:18:17;;;;;;;24.88;5.13;;;;;;;19.26;40.62;96103.75;5029519;28;20707;-80
2023/10/09 04:23:35;;;;;;;22.15;4.55;;;;;;;19.09;41.02;96115.53;5013981;28;20206;-80
2023/10/09 04:26:10;;;;;;;18.70;5.10;;;;;;;19.16;41.03;96114.56;5010896;28;20595;-81
2023/10/09 04:28:36;;;;;;;20.05;4.35;;;;;;;19.15;41.29;96112.94;5013566;28;20179;-81
2023/10/09 04:31:06;;;;;;;16.15;4.50;;;;;;;19.13;40.94;96119.41;5015128;28;20611;-81
2023/10/09 04:41:33;;;;;;;17.17;5.20;;;;;;;18.95;42.00;96120.63;5024715;28;20592;-81
2023/10/09 04:57:38;;;;;;;14.85;4.05;;;;;;;18.78;42.58;96116.59;5019701;28;20179;-81
2023/10/09 05:00:06;;;;;;;23.08;4.53;;;;;;;18.75;42.38;96116.97;5024434;28;20185;-81
2023/10/09 05:02:38;;;;;;;17.90;4.18;;;;;;;18.77;42.44;96125.50;5031755;28;20183;-80
2023/10/09 05:05:48;;;;;;;17.83;4.22;;;;;;;18.71;42.71;96126.22;5023348;28;20236;-78
2023/10/09 05:08:16;;;;;;;15.70;4.38;;;;;;;18.72;42.83;96121.78;5021753;28;20190;-80
2023/10/09 05:10:53;;;;;;;14.90;3.97;;;;;;;18.72;42.57;96129.66;5017857;28;20195;-80
2023/10/09 05:13:42;;;;;;;19.00;3.83;;;;;;;18.74;42.95;96130.31;5028619;28;20190;-80
2023/10/09 05:16:33;;;;;;;20.90;4.85;;;;;;;18.67;43.30;96130.22;5024536;28;20595;-79
2023/10/09 05:19:06;;;;;;;20.92;5.57;;;;;;;18.62;43.29;96128.09;5016710;28;20210;-79
2023/10/09 05:21:44;;;;;;;20.25;4.93;;;;;;;18.59;43.41;96131.13;5005238;28;20712;-79
2023/10/09 05:29:24;;;;;;;13.85;4.88;;;;;;;18.64;43.47;96130.53;5026473;28;20197;-80
2023/10/09 05:32:15;;;;;;;13.30;4.30;;;;;;;18.62;43.88;96130.72;5019342;28;20185;-80
2023/10/09 05:37:42;;;;;;;18.40;4.00;;;;;;;18.70;44.20;96134.31;5025539;28;20297;-79
2023/10/09 05:42:43;;;;;;;14.10;4.53;;;;;;;18.73;44.75;96139.19;5022257;28;20189;-80
2023/10/09 05:47:56;;;;;;;15.10;4.22;;;;;;;18.73;44.56;96147.06;5026522;28;20659;-81
2023/10/09 06:24:23;;;;;;;17.83;4.82;;;;;;;19.57;43.35;96153.50;5017892;28;20191;-80
2023/10/09 06:29:35;;;;;;;23.35;5.25;;;;;;;19.67;42.87;96143.47;5026667;28;20182;-80
2023/10/09 06:34:51;;;;;;;20.00;4.60;;;;;;;19.79;41.93;96152.50;5016102;28;20671;-79
2023/10/09 06:40:10;;;;;;;17.75;4.68;;;;;;;19.80;41.24;96155.94;5024811;28;20250;-80
2023/10/09 06:45:08;;;;;;;16.55;5.10;;;;;;;19.87;41.65;96158.63;5021456;28;20182;-77
2023/10/09 06:47:41;;;;;;;19.52;4.47;;;;;;;19.95;41.27;96169.03;5018528;28;20183;-77
2023/10/09 06:56:24;;;;;;;17.88;4.50;;;;;;;20.04;41.05;96166.06;5022934;28;20221;-77
2023/10/09 06:58:23;;;;;;;26.63;4.70;;;;;;;20.03;40.96;96159.16;5023494;28;20226;-77
2023/10/09 07:03:32;;;;;;;22.77;5.10;;;;;;;20.20;40.91;96162.31;5025446;28;20657;-77
2023/10/09 07:06:23;;;;;;;25.25;5.40;;;;;;;20.06;40.78;96156.16;5017737;28;20234;-77
2023/10/09 07:09:15;;;;;;;22.23;5.32;;;;;;;20.20;40.62;96159.69;5016991;28;20185;-77
2023/10/09 07:14:56;;;;;;;25.00;5.88;;;;;;;20.30;39.99;96156.69;5017594;28;20668;-78
2023/10/09 07:17:44;;;;;;;18.05;4.70;;;;;;;20.31;39.85;96168.88;5020943;28;20263;-77
2023/10/09 07:20:36;;;;;;;30.63;6.03;;;;;;;20.39;39.62;96166.09;5025187;28;20187;-77
2023/10/09 07:23:15;;;;;;;22.00;5.85;;;;;;;20.35;40.09;96167.50;5014356;28;20191;-78
2023/10/09 07:25:41;;;;;;;24.10;6.07;;;;;;;20.42;39.39;96171.00;5038047;28;20234;-78
2023/10/09 07:28:36;;;;;;;25.15;5.35;;;;;;;20.40;40.06;96164.25;5023318;28;20183;-77
2023/10/09 07:31:02;;;;;;;21.63;5.22;;;;;;;20.45;39.58;96167.19;5021789;28;20178;-77
2023/10/09 07:33:50;;;;;;;23.60;5.07;;;;;;;20.48;39.78;96172.88;5027629;28;20557;-78
2023/10/09 07:36:16;;;;;;;29.05;6.03;;;;;;;20.46;39.53;96169.63;5021494;28;20229;-78
2023/10/09 07:38:44;;;;;;;29.52;6.25;;;;;;;20.56;39.62;96174.53;5027976;28;20211;-78
2023/10/09 07:43:39;;;;;;;25.05;5.72;;;;;;;20.73;39.25;96170.56;5017788;28;20179;-78
2023/10/09 07:48:52;;;;;;;26.85;6.95;;;;;;;20.70;38.99;96164.88;5018122;28;20179;-78
2023/10/09 07:51:19;;;;;;;24.88;5.05;;;;;;;20.78;39.08;96170.81;5023851;28;20182;-78
2023/10/09 07:53:45;;;;;;;26.05;5.45;;;;;;;20.82;39.26;96179.16;5023824;28;20827;-78
2023/10/09 07:56:20;;;;;;;18.02;4.95;;;;;;;20.96;38.97;96180.03;5020859;28;20242;-78
2023/10/09 07:58:47;;;;;;;23.70;5.82;;;;;;;20.89;38.89;96183.44;5011958;28;20301;-78
2023/10/09 08:01:22;;;;;;;24.88;5.18;;;;;;;21.06;39.05;96183.13;5021116;28;20198;-77
2023/10/09 08:03:56;;;;;;;24.27;5.35;;;;;;;21.05;38.52;96184.94;5021774;28;20682;-77
2023/10/09 08:06:38;;;;;;;26.48;5.70;;;;;;;21.03;38.97;96188.81;5012703;28;20415;-78
2023/10/09 08:11:59;;;;;;;25.77;5.43;;;;;;;21.30;38.90;96195.03;5020382;28;20191;-77
2023/10/09 08:17:16;;;;;;;27.90;5.18;;;;;;;21.10;39.57;96203.63;5025065;28;20282;-77
2023/10/09 08:19:56;;;;;;;17.48;4.28;;;;;;;21.15;39.51;96200.41;5031248;28;20683;-78
2023/10/09 08:24:58;;;;;;;20.77;4.75;;;;;;;21.28;39.68;96204.94;5024251;28;20187;-77
2023/10/09 08:32:42;;;;;;;18.05;3.70;;;;;;;21.24;40.16;96203.69;5022223;28;20198;-77
2023/10/09 08:35:29;;;;;;;21.42;4.95;;;;;;;21.28;40.32;96212.88;5019084;28;20297;-76
2023/10/09 08:37:58;;;;;;;23.10;4.50;;;;;;;20.99;40.76;96204.22;5021927;28;20259;-77
2023/10/09 08:40:37;;;;;;;19.85;4.82;;;;;;;21.33;39.98;96215.75;5027322;28;20306;-77
2023/10/09 08:43:22;;;;;;;15.05;3.58;;;;;;;21.17;40.33;96207.13;5020590;28;20187;-77
2023/10/09 08:46:00;;;;;;;21.33;4.93;;;;;;;21.15;40.67;96200.41;5028445;28;20305;-77
2023/10/09 08:48:27;;;;;;;18.80;4.18;;;;;;;21.15;40.35;96203.88;5016358;28;20274;-77
2023/10/09 08:50:57;;;;;;;18.58;4.03;;;;;;;21.26;40.36;96210.41;5031686;28;20209;-77
2023/10/09 08:53:31;;;;;;;17.67;4.07;;;;;;;21.39;40.01;96201.75;5009719;28;20189;-77
2023/10/09 08:55:57;;;;;;;17.70;4.22;;;;;;;21.44;40.43;96204.59;5023200;28;20658;-77
2023/10/09 08:58:32;;;;;;;17.60;4.18;;;;;;;21.47;40.14;96204.22;5015879;28;20245;-77
2023/10/09 09:00:58;;;;;;;23.30;5.07;;;;;;;21.37;40.09;96215.13;5026072;28;20178;-77
2023/10/09 09:03:24;;;;;;;24.90;4.60;;;;;;;21.54;39.52;96205.03;5022447;28;20241;-76
2023/10/09 09:06:03;;;;;;;21.60;4.63;;;;;;;21.56;39.51;96208.31;5024136;28;20724;-77
2023/10/09 09:08:30;;;;;;;17.58;4.20;;;;;;;21.56;39.84;96218.06;5019649;28;20171;-77
2023/10/09 09:11:11;;;;;;;19.83;4.68;;;;;;;21.50;40.02;96211.75;5014032;28;20189;-77
2023/10/09 09:13:58;;;;;;;17.95;4.20;;;;;;;21.57;40.12;96209.13;5020777;28;20221;-77
2023/10/09 09:16:30;;;;;;;17.00;4.80;;;;;;;21.76;40.44;96214.44;5024791;28;20229;-76
2023/10/09 09:21:54;;;;;;;19.30;4.68;;;;;;;21.73;40.51;96225.41;5021468;28;20183;-77
2023/10/09 09:27:09;;;;;;;20.63;4.35;;;;;;;22.00;40.02;96234.19;5025776;28;20716;-76
2023/10/09 09:29:39;;;;;;;18.30;4.35;;;;;;;22.08;39.70;96227.09;5024705;28;20257;-77
2023/10/09 09:32:19;;;;;;;16.88;4.22;;;;;;;;;;5028575;28;20183;-77
2023/10/09 09:34:46;;;;;;;14.57;4.28;;;;;;;22.03;40.54;96231.16;5018133;28;20186;-78
2023/10/09 09:37:19;;;;;;;16.20;4.03;;;;;;;22.12;40.33;96230.97;5024232;28;20219;-77
2023/10/09 09:39:44;;;;;;;19.88;4.70;;;;;;;22.53;40.13;96223.63;5030987;28;20214;-77
2023/10/09 09:42:17;;;;;;;12.88;3.88;;;;;;;22.48;40.36;96230.56;5020982;28;20236;-77
2023/10/09 09:44:43;;;;;;;15.93;4.70;;;;;;;22.50;40.69;96221.38;5023155;28;20194;-77
2023/10/09 09:47:13;;;;;;;14.55;3.95;;;;;;;22.76;40.14;96225.00;5018551;28;20207;-77
2023/10/09 09:49:42;;;;;;;13.50;3.25;;;;;;;22.76;40.47;96240.91;5012115;28;20186;-77
2023/10/09 09:52:11;;;;;;;16.52;4.28;;;;;;;22.66;40.52;96236.03;5022972;28;20233;-77
2023/10/09 09:54:38;;;;;;;18.15;4.15;;;;;;;22.65;40.32;96234.41;5024873;28;20704;-77
2023/10/09 09:57:08;;;;;;;12.38;3.78;;;;;;;22.96;40.27;96225.78;5019835;28;20207;-76
2023/10/09 09:59:40;;;;;;;16.70;4.30;;;;;;;22.85;40.48;96232.56;5015915;28;20218;-77
2023/10/09 10:02:08;;;;;;;14.40;4.55;;;;;;;23.01;39.92;96227.81;5024669;28;20187;-77
2023/10/09 10:04:37;;;;;;;13.35;4.28;;;;;;;22.88;39.46;96226.00;5022313;28;20183;-77
2023/10/09 10:07:09;;;;;;;17.95;4.45;;;;;;;23.09;39.17;96235.56;5016764;28;20210;-76
2023/10/09 10:09:38;;;;;;;14.10;3.85;;;;;;;23.00;39.24;96231.50;5014912;28;20215;-76
2023/10/09 10:12:09;;;;;;;15.27;4.32;;;;;;;23.11;38.27;96229.00;5019565;28;20190;-77
2023/10/09 10:15:37;;;;;;;17.65;4.28;;;;;;;22.94;37.42;96232.31;5020958;28;20179;-77
2023/10/09 10:17:56;;;;;;;15.18;4.68;;;;;;;23.14;37.27;96233.06;5019351;28;20205;-76
2023/10/09 10:22:50;;;;;;;14.05;4.20;;;;;;;23.21;37.30;96222.44;5021782;28;20225;-77
2023/10/09 10:25:32;;;;;;;16.45;4.70;;;;;;;23.08;37.01;96228.63;5013083;28;20183;-77
2023/10/09 10:29:05;;;;;;;14.93;4.18;;;;;;;22.98;37.73;96233.56;5039429;28;20213;-76
2023/10/09 10:31:08;;;;;;;13.15;3.60;;;;;;;23.28;37.44;96225.91;5018378;28;20684;-77
2023/10/09 10:33:54;;;;;;;11.52;3.72;;;;;;;23.15;38.00;96217.00;5016711;28;20186;-77
2023/10/09 10:36:23;;;;;;;14.05;3.80;;;;;;;23.08;37.47;96218.03;5024778;28;20209;-78
2023/10/09 10:39:09;;;;;;;13.90;4.07;;;;;;;22.93;37.09;96212.16;5013541;28;20238;-78
2023/10/09 10:41:50;;;;;;;12.75;3.80;;;;;;;22.84;36.18;96220.34;5028762;28;20209;-77
2023/10/09 10:44:37;;;;;;;12.60;3.30;;;;;;;22.68;35.09;96226.03;5016508;28;20179;-78
2023/10/09 10:47:22;;;;;;;15.77;4.05;;;;;;;22.82;35.02;96217.06;5014011;28;20217;-77
2023/10/09 10:49:49;;;;;;;7.90;3.45;;;;;;;22.95;33.79;96223.34;5020956;28;20170;-78
2023/10/09 10:52:22;;;;;;;7.93;3.70;;;;;;;23.12;33.11;96230.63;5022660;28;20237;-78
2023/10/09 10:55:05;;;;;;;13.40;4.22;;;;;;;23.21;33.06;96222.44;5026412;28;20846;-78
2023/10/09 10:57:53;;;;;;;11.68;4.03;;;;;;;23.69;32.79;96222.88;5018940;28;20203;-78
2023/10/09 11:03:17;;;;;;;11.70;3.53;;;;;;;23.74;31.28;96218.53;5022311;28;20225;-77
2023/10/09 11:05:50;;;;;;;9.68;4.43;;;;;;;23.93;30.76;96222.06;5024110;28;20210;-77
2023/10/09 11:08:15;;;;;;;11.23;3.95;;;;;;;23.83;31.40;96218.28;5018467;28;20175;-77
2023/10/09 11:10:49;;;;;;;13.40;4.32;;;;;;;23.83;31.02;96227.03;5014167;28;20175;-77
2023/10/09 11:13:34;;;;;;;8.18;4.10;;;;;;;23.87;30.72;96233.56;5019646;28;20202;-77
2023/10/09 11:16:15;;;;;;;9.85;4.38;;;;;;;23.77;31.44;96235.06;5019405;28;20634;-77
2023/10/09 11:18:46;;;;;;;16.30;4.13;;;;;;;23.65;31.68;96235.72;5020170;28;20574;-76
2023/10/09 11:21:23;;;;;;;11.32;4.22;;;;;;;23.23;31.80;96237.09;5026568;28;20186;-77
2023/10/09 11:23:57;;;;;;;14.32;4.82;;;;;;;23.45;31.92;96235.00;5025998;28;20190;-77
2023/10/09 11:26:40;;;;;;;15.25;4.25;;;;;;;23.53;32.88;96237.41;5021513;28;20297;-77
2023/10/09 11:32:01;;;;;;;16.45;5.57;;;;;;;23.71;32.03;96229.56;5023466;28;20228;-77
2023/10/09 11:34:35;;;;;;;17.13;4.72;;;;;;;23.56;32.05;96220.25;5012434;28;20193;-77
2023/10/09 11:37:15;;;;;;;16.08;5.30;;;;;;;23.58;31.40;96223.50;5020001;28;20638;-77
2023/10/09 11:39:50;;;;;;;13.05;4.55;;;;;;;23.40;30.76;96217.06;5028763;28;20206;-77
2023/10/09 11:42:35;;;;;;;11.75;4.85;;;;;;;23.46;30.57;96220.72;5020903;28;20186;-77
2023/10/09 11:45:04;;;;;;;17.85;5.07;;;;;;;23.39;30.79;96223.38;5016939;28;20178;-77
2023/10/09 11:47:45;;;;;;;9.93;4.63;;;;;;;23.06;29.74;96205.00;5020818;28;20297;-77
2023/10/09 11:50:17;;;;;;;12.55;4.85;;;;;;;23.24;29.94;96209.63;5014201;28;20262;-76
2023/10/09 11:55:40;;;;;;;9.10;4.75;;;;;;;23.48;29.74;96218.66;5026439;28;20245;-77
2023/10/09 11:58:06;;;;;;;9.25;4.63;;;;;;;23.54;28.86;96201.91;5015095;28;20227;-77
2023/10/09 12:00:44;;;;;;;8.93;4.10;;;;;;;23.45;28.76;96198.69;5015658;28;20665;-78
2023/10/09 12:03:09;;;;;;;15.73;4.88;;;;;;;23.69;29.97;96188.41;5021664;28;20241;-77
2023/10/09 12:05:35;;;;;;;10.77;4.63;;;;;;;23.74;29.26;96185.91;5021927;28;20203;-77
2023/10/09 12:08:02;;;;;;;9.98;5.07;;;;;;;23.64;28.04;96181.06;5009077;28;20249;-77
2023/10/09 12:10:29;;;;;;;17.98;5.70;;;;;;;23.87;29.21;96164.59;5011846;28;20210;-78
2023/10/09 12:12:58;;;;;;;12.60;5.72;;;;;;;24.06;28.45;96162.81;5027008;28;20190;-77
2023/10/09 12:15:24;;;;;;;9.65;5.25;;;;;;;24.23;27.67;96161.25;5019266;28;20261;-78
2023/10/09 12:17:50;;;;;;;13.38;5.20;;;;;;;24.23;27.67;96161.25;5021227;28;20272;-78
2023/10/09 12:20:30;;;;;;;11.95;5.13;;;;;;;24.41;27.91;96165.00;5026242;28;20175;-78
2023/10/09 12:22:57;;;;;;;12.15;5.32;;;;;;;24.58;27.02;96160.72;5013993;28;20678;-77
2023/10/09 12:25:24;;;;;;;11.43;5.30;;;;;;;24.74;27.11;96164.66;4998426;28;20241;-78
2023/10/09 12:27:49;;;;;;;11.85;5.55;;;;;;;24.85;26.48;96166.56;5023666;28;20182;-77
2023/10/09 12:30:14;;;;;;;11.05;5.07;;;;;;;24.90;27.38;96150.75;5022667;28;20245;-78
2023/10/09 12:32:40;;;;;;;10.20;5.28;;;;;;;24.99;26.54;96157.38;5019609;28;20194;-77
2023/10/09 12:35:17;;;;;;;12.32;5.75;;;;;;;24.99;26.28;96153.91;5011072;28;20648;-77
2023/10/09 12:37:43;;;;;;;11.55;5.45;;;;;;;24.82;25.82;96151.84;5023334;28;20191;-77
2023/10/09 12:40:10;;;;;;;14.32;5.60;;;;;;;24.69;25.95;96148.56;5027594;28;20187;-77
2023/10/09 12:42:36;;;;;;;11.02;5.28;;;;;;;24.53;26.28;96147.28;5020379;28;20661;-77
2023/10/09 12:45:08;;;;;;;14.63;5.57;;;;;;;24.35;26.29;96152.59;5027788;28;20214;-77
2023/10/09 12:47:33;;;;;;;11.07;5.32;;;;;;;24.28;27.21;96156.06;5020006;28;20207;-77
2023/10/09 12:49:59;;;;;;;9.48;4.78;;;;;;;24.44;27.12;96162.69;5017284;28;20186;-77
2023/10/09 12:52:29;;;;;;;9.90;5.28;;;;;;;24.46;26.79;96160.63;5019382;28;20190;-77
2023/10/09 12:54:55;;;;;;;10.73;4.90;;;;;;;24.37;27.74;96153.16;5007429;28;20567;-77
2023/10/09 12:57:20;;;;;;;12.20;5.97;;;;;;;24.36;26.78;96157.66;5025535;28;20203;-78
2023/10/09 12:59:48;;;;;;;13.35;5.35;;;;;;;24.39;26.83;96151.13;5015199;28;20214;-78
2023/10/09 13:02:28;;;;;;;12.85;6.07;;;;;;;24.22;28.20;96149.00;5023546;28;20191;-77
2023/10/09 13:04:53;;;;;;;14.05;6.38;;;;;;;24.06;27.25;96154.06;5023505;28;20214;-78
2023/10/09 13:07:21;;;;;;;14.88;6.82;;;;;;;24.15;26.24;96155.41;5027869;28;20249;-78
2023/10/09 13:10:08;;;;;;;14.95;7.47;;;;;;;24.06;26.07;96154.06;5013393;28;20198;-78
2023/10/09 13:12:32;;;;;;;15.32;7.45;;;;;;;23.89;26.81;96157.25;5023605;28;20190;-77
2023/10/09 13:14:57;;;;;;;15.73;7.32;;;;;;;24.11;27.06;96162.16;5019791;28;20187;-77
2023/10/09 13:17:26;;;;;;;15.07;7.38;;;;;;;24.01;27.20;96144.88;5030256;28;20263;-78
2023/10/09 13:19:52;;;;;;;14.20;7.28;;;;;;;23.79;26.17;96143.66;5021343;28;20703;-78
2023/10/09 13:22:17;;;;;;;17.15;8.32;;;;;;;23.82;25.95;96140.56;5022480;28;20199;-77
2023/10/09 13:24:43;;;;;;;18.20;8.38;;;;;;;23.71;25.99;96146.56;5018622;28;20688;-78
2023/10/09 13:27:09;;;;;;;15.57;8.48;;;;;;;23.72;26.06;96145.53;5025644;28;20551;-78
2023/10/09 13:29:39;;;;;;;14.93;8.35;;;;;;;23.64;25.73;96143.94;5025939;28;20608;-77
2023/10/09 13:32:13;;;;;;;13.48;7.82;;;;;;;23.63;24.68;96141.53;5013822;28;20653;-78
2023/10/09 13:34:44;;;;;;;15.55;7.72;;;;;;;23.49;25.36;96132.81;5027827;28;20297;-77
2023/10/09 13:37:13;;;;;;;16.70;8.05;;;;;;;23.67;25.85;96138.22;5030095;28;20586;-77
2023/10/09 13:39:51;;;;;;;15.07;8.13;;;;;;;23.89;25.31;96136.03;5014976;28;20294;-78
2023/10/09 13:42:17;;;;;;;13.98;7.43;;;;;;;23.93;25.66;96137.19;5023448;28;20201;-78
2023/10/09 13:44:42;;;;;;;16.33;7.93;;;;;;;24.13;25.93;96129.09;5020272;28;20182;-77
2023/10/09 13:47:18;;;;;;;13.27;7.20;;;;;;;24.31;25.83;96130.97;5024753;28;20195;-78
2023/10/09 13:49:44;;;;;;;13.50;7.38;;;;;;;24.53;25.95;96132.16;5020728;28;20190;-78
2023/10/09 13:52:09;;;;;;;12.38;6.97;;;;;;;24.63;25.37;96129.00;5024967;28;20237;-78
2023/10/09 13:57:04;;;;;;;15.05;7.20;;;;;;;25.05;25.24;96126.50;5025212;28;20222;-78
2023/10/09 13:59:29;;;;;;;16.20;7.30;;;;;;;25.07;25.52;96122.56;5017161;28;20234;-78
2023/10/09 14:01:55;;;;;;;15.05;6.82;;;;;;;25.35;25.52;96123.81;5022579;28;20194;-78
2023/10/09 14:04:23;;;;;;;13.30;6.60;;;;;;;25.36;25.34;96120.16;5025650;28;20189;-78
2023/10/09 14:06:56;;;;;;;12.80;7.18;;;;;;;25.56;24.56;96110.03;5013971;28;20298;-78
2023/10/09 14:09:30;;;;;;;11.18;6.40;;;;;;;25.79;24.58;96119.91;5016878;28;20700;-78
2023/10/09 14:12:06;;;;;;;13.52;6.90;;;;;;;25.68;22.23;96107.38;5023327;28;20189;-75
2023/10/09 14:14:48;;;;;;;13.00;7.00;;;;;;;25.49;22.39;96111.16;5019744;28;20261;-78
2023/10/09 14:17:14;;;;;;;12.50;6.18;;;;;;;25.65;22.67;96119.31;5007385;28;20203;-78